To NAV CANADA Home Page Login to a new session Search on AWWS site Feedback and Comments Disclaimer Vers la page française équivalente Tips FAQ What's new on the site To the Forecasts and Observations / NOTAM section To "File a Flight Plan" website Publications and other links Update of the User's profile FIC Telephone Numbers My Weather Data Folder Route Weather Data Regional Weather Data Local Weather Data To the Forecasts and Observations / NOTAM section
Request Generated 06/26/2017 at 03:42:09 UTC . Weather information available at that time is displayed.

METAR/TAF

TORONTO/BILLY BISHOP TORONTO CITY AIRPORT/ON    (show WxCam)

METAR CYTZ 260300Z AUTO 25006KT 9SM FEW060 OVC091 13/10 A2997 RMK
SLP152=
METAR CYTZ 260200Z AUTO 26007KT 9SM CLR 16/10 A2997 RMK SLP149
DENSITY ALT 400FT=
METAR CYTZ 260100Z AUTO 27010G15KT 9SM CLR 18/09 A2995 RMK SLP144
DENSITY ALT 600FT=

TAF CYTZ 260138Z 2602/2702 27015KT P6SM FEW060 SCT100
BECMG 2602/2604 27008KT
FM261200 19005KT P6SM BKN025
FM261600 27012G22KT P6SM -SHRA BKN050 TEMPO 2616/2619 VRB15G30KT
4SM TSRA BKN040CB PROB30 2616/2619 VRB25G40KT 11/2SM +TSGRRA
BKN030CB
FM261900 24010KT P6SM FEW050 BKN090
RMK FCST BASED ON AUTO OBS. NXT FCST BY 260800Z=
Your time UTC time
Weather data provided by Environment Canada and NAV CANADA